アスタナ の空港の天気 - METARとTAF

アスタナ国際空港 ( UACC / TSE ) - カザフスタン アスタナ
飛行場実況気象(Metar)
観測時間05/28 07:00 QYZT (05/28 02:00 UTC)
風向・風速東 2m/s
視程10km以上
天気現象
なし
気温14℃
湿度55%
気圧1026hPa
METARUACC 280200Z 08002MPS 050V130 CAVOK 14/05 Q1026 R04/0///70 NOSIG RMK QFE737/0983
過去の天気等 Google飛行場航空写真 Wunderground天気予報

過去48時間のMETAR

飛行場予報(TAF)
発表時間: 5/28 04:00 QYZT (5/27 23:00 UTC)
予報対象時間: 28日5時 QYZT ~ 29日5時 QYZT
風向・風速東 4m/s
視程10km以上
なし
TAF UACC 272300Z 2800/2824 08004MPS 9999 NSC TX25/2811Z TN07/2801Z